Time;durP1;ratioP1;P1;durP2;ratioP2;P2;SDS_P1;SDS_P2;PMS_P1;PMS_P2;Temp;Humidity;BMP_temperature;BMP_pressure;BME280_temperature;BME280_humidity;BME280_pressure;Samples;Min_cycle;Max_cycle;Signal;HPM_P1;HPM_P2
2022/03/09 00:00:04;;;;;;;22.00;9.93;;;;;;;;;;5054344;28;20028;-67
2022/03/09 00:02:49;;;;;;;19.83;9.13;;;;;;;;;;5052821;28;20032;-64
2022/03/09 00:05:34;;;;;;;18.00;8.98;;;;;;;;;;5044698;28;20032;-69
2022/03/09 00:08:19;;;;;;;19.15;9.77;;;;;;;;;;5054212;28;20453;-64
2022/03/09 00:11:04;;;;;;;13.93;9.02;;;;;;;;;;5056140;28;20017;-68
2022/03/09 00:13:50;;;;;;;17.02;9.30;;;;;;;;;;5039642;28;20386;-67
2022/03/09 00:16:35;;;;;;;19.98;9.32;;;;;;;;;;5054388;28;20066;-67
2022/03/09 00:19:20;;;;;;;23.35;12.45;;;;;;;;;;5052748;28;20027;-67
2022/03/09 00:22:05;;;;;;;18.27;10.95;;;;;;;;;;5054642;28;20033;-64
2022/03/09 00:24:51;;;;;;;16.52;9.48;;;;;;;;;;5053711;28;20379;-67
2022/03/09 00:27:36;;;;;;;16.02;9.05;;;;;;;;;;5043360;28;20529;-68
2022/03/09 00:30:21;;;;;;;15.02;8.93;;;;;;;;;;5054408;28;20111;-70
2022/03/09 00:33:07;;;;;;;15.63;8.95;;;;;;;;;;5049988;28;20365;-69
2022/03/09 00:35:52;;;;;;;16.13;9.07;;;;;;;;;;5051566;28;20040;-68
2022/03/09 00:38:37;;;;;;;16.20;9.18;;;;;;;;;;5053433;28;20045;-68
2022/03/09 00:41:24;;;;;;;17.17;8.65;;;;;;;;;;5054228;28;20072;-69
2022/03/09 00:44:09;;;;;;;15.32;8.73;;;;;;;;;;5049121;28;20104;-70
2022/03/09 00:46:54;;;;;;;18.20;8.95;;;;;;;;;;5051465;28;20035;-71
2022/03/09 00:49:39;;;;;;;16.48;9.13;;;;;;;;;;5051633;28;20097;-69
2022/03/09 00:52:24;;;;;;;17.73;9.10;;;;;;;;;;5053536;28;20037;-70
2022/03/09 00:55:10;;;;;;;15.13;9.13;;;;;;;;;;5050996;28;20032;-70
2022/03/09 00:57:55;;;;;;;18.15;9.30;;;;;;;;;;5052088;28;20387;-72
2022/03/09 01:00:40;;;;;;;17.08;9.00;;;;;;;;;;5051817;28;20024;-66
2022/03/09 01:03:25;;;;;;;15.70;9.95;;;;;;;;;;5067505;28;20021;-65
2022/03/09 01:06:11;;;;;;;15.77;8.68;;;;;;;;;;5053094;28;20091;-64
2022/03/09 01:08:57;;;;;;;19.15;9.82;;;;;;;;;;5046908;28;20032;-63
2022/03/09 01:11:42;;;;;;;17.83;10.10;;;;;;;;;;5038878;28;20082;-67
2022/03/09 01:14:28;;;;;;;16.05;9.15;;;;;;;;;;5059068;28;20311;-66
2022/03/09 01:17:13;;;;;;;16.15;9.60;;;;;;;;;;5050395;28;20514;-66
2022/03/09 01:19:58;;;;;;;19.05;10.15;;;;;;;;;;5052127;28;20036;-69
2022/03/09 01:22:44;;;;;;;19.65;9.95;;;;;;;;;;5049475;28;20476;-69
2022/03/09 01:25:29;;;;;;;16.75;8.85;;;;;;;;;;5050262;28;20054;-66
2022/03/09 01:28:14;;;;;;;18.92;9.93;;;;;;;;;;5052757;28;20475;-68
2022/03/09 01:30:59;;;;;;;16.02;9.45;;;;;;;;;;5044619;28;20109;-65
2022/03/09 01:33:45;;;;;;;18.95;9.57;;;;;;;;;;5053011;28;20036;-67
2022/03/09 01:36:30;;;;;;;14.15;9.07;;;;;;;;;;5038335;28;20051;-69
2022/03/09 01:39:15;;;;;;;17.30;9.32;;;;;;;;;;5049176;28;20028;-68
2022/03/09 01:42:00;;;;;;;17.27;10.00;;;;;;;;;;5046959;28;20506;-69
2022/03/09 01:44:46;;;;;;;18.20;9.25;;;;;;;;;;5051482;28;20081;-71
2022/03/09 01:47:31;;;;;;;15.45;8.98;;;;;;;;;;5074290;28;20634;-69
2022/03/09 01:50:16;;;;;;;19.10;10.45;;;;;;;;;;5053231;28;20029;-70
2022/03/09 01:53:02;;;;;;;17.73;9.60;;;;;;;;;;5052043;28;20107;-70
2022/03/09 01:55:47;;;;;;;20.13;9.85;;;;;;;;;;5050915;28;20047;-65
2022/03/09 01:58:32;;;;;;;16.88;9.45;;;;;;;;;;5051585;28;20545;-68
2022/03/09 02:01:17;;;;;;;16.08;9.68;;;;;;;;;;5052218;28;20079;-68
2022/03/09 02:04:04;;;;;;;17.63;10.55;;;;;;;;;;5054094;28;20138;-69
2022/03/09 02:06:49;;;;;;;16.30;8.63;;;;;;;;;;5053813;28;20047;-69
2022/03/09 02:09:46;;;;;;;16.10;8.80;;;;;;;;;;5052940;28;20028;-69
2022/03/09 02:12:32;;;;;;;17.23;9.63;;;;;;;;;;5052565;28;20497;-65
2022/03/09 02:15:17;;;;;;;15.55;8.48;;;;;;;;;;5052240;28;20027;-68
2022/03/09 02:18:03;;;;;;;20.10;8.45;;;;;;;;;;5051049;28;20246;-67
2022/03/09 02:20:49;;;;;;;18.38;8.80;;;;;;;;;;5053619;28;20075;-67
2022/03/09 02:23:34;;;;;;;15.02;8.63;;;;;;;;;;5052998;28;20060;-68
2022/03/09 02:26:20;;;;;;;12.63;7.75;;;;;;;;;;5056617;28;20024;-66
2022/03/09 02:29:05;;;;;;;16.80;9.40;;;;;;;;;;5052855;28;20749;-67
2022/03/09 02:31:50;;;;;;;18.45;10.02;;;;;;;;;;5052423;28;20059;-66
2022/03/09 02:34:36;;;;;;;17.42;9.85;;;;;;;;;;5038228;28;20035;-69
2022/03/09 02:37:21;;;;;;;19.17;10.57;;;;;;;;;;5055013;28;20027;-68
2022/03/09 02:40:07;;;;;;;15.98;9.32;;;;;;;;;;5051199;28;20086;-69
2022/03/09 02:42:53;;;;;;;16.95;9.18;;;;;;;;;;5054460;28;20090;-70
2022/03/09 02:45:38;;;;;;;16.85;9.77;;;;;;;;;;5053657;28;20675;-68
2022/03/09 02:48:23;;;;;;;16.05;9.25;;;;;;;;;;5051900;28;20032;-69
2022/03/09 02:51:08;;;;;;;15.32;9.20;;;;;;;;;;5062254;28;20224;-66
2022/03/09 02:53:54;;;;;;;15.15;9.00;;;;;;;;;;5066082;28;20530;-65
2022/03/09 02:56:39;;;;;;;13.43;8.00;;;;;;;;;;5052268;28;20025;-68
2022/03/09 02:59:24;;;;;;;16.70;8.45;;;;;;;;;;5050213;28;20082;-67
2022/03/09 03:02:10;;;;;;;16.90;9.07;;;;;;;;;;5051839;28;20024;-66
2022/03/09 03:04:55;;;;;;;18.10;9.55;;;;;;;;;;5051577;28;20431;-65
2022/03/09 03:07:41;;;;;;;13.93;8.20;;;;;;;;;;5052755;28;20044;-65
2022/03/09 03:10:26;;;;;;;14.50;8.25;;;;;;;;;;5050722;28;20716;-66
2022/03/09 03:13:11;;;;;;;19.02;9.45;;;;;;;;;;5051696;28;20515;-65
2022/03/09 03:15:57;;;;;;;15.95;8.88;;;;;;;;;;5058852;28;20045;-64
2022/03/09 03:18:42;;;;;;;17.45;8.68;;;;;;;;;;5047142;28;20033;-64
2022/03/09 03:21:27;;;;;;;20.20;9.45;;;;;;;;;;5053647;28;20039;-63
2022/03/09 03:24:12;;;;;;;15.90;9.20;;;;;;;;;;5076794;28;20055;-64
2022/03/09 03:26:58;;;;;;;21.45;8.05;;;;;;;;;;5040480;28;20513;-72
2022/03/09 03:29:43;;;;;;;18.17;9.20;;;;;;;;;;5055986;28;20121;-65
2022/03/09 03:32:28;;;;;;;17.98;9.27;;;;;;;;;;5052502;28;20115;-65
2022/03/09 03:35:14;;;;;;;20.58;10.73;;;;;;;;;;5054031;28;20440;-64
2022/03/09 03:37:59;;;;;;;15.00;9.05;;;;;;;;;;5052005;28;20036;-68
2022/03/09 03:40:44;;;;;;;17.67;8.57;;;;;;;;;;5054241;28;20036;-64
2022/03/09 03:43:29;;;;;;;14.82;8.95;;;;;;;;;;5055007;28;20033;-65
2022/03/09 03:46:15;;;;;;;18.85;9.32;;;;;;;;;;5054803;28;20036;-70
2022/03/09 03:49:00;;;;;;;14.70;8.40;;;;;;;;;;5059587;28;20548;-64
2022/03/09 03:51:45;;;;;;;15.50;8.20;;;;;;;;;;5060368;28;20110;-64
2022/03/09 03:54:31;;;;;;;19.50;8.18;;;;;;;;;;5061982;28;20227;-64
2022/03/09 03:57:16;;;;;;;18.00;8.65;;;;;;;;;;5052102;28;20467;-63
2022/03/09 04:00:02;;;;;;;14.50;7.95;;;;;;;;;;5047213;28;20036;-64
2022/03/09 04:02:48;;;;;;;15.20;7.40;;;;;;;;;;5053923;28;20582;-64
2022/03/09 04:05:33;;;;;;;13.77;8.20;;;;;;;;;;5068748;28;20029;-63
2022/03/09 04:08:18;;;;;;;16.30;8.52;;;;;;;;;;5053201;28;20421;-69
2022/03/09 04:11:03;;;;;;;15.38;9.05;;;;;;;;;;5073809;28;20060;-68
2022/03/09 04:13:49;;;;;;;17.30;7.68;;;;;;;;;;5053504;28;20044;-70
2022/03/09 04:16:34;;;;;;;16.10;8.30;;;;;;;;;;5054922;28;20033;-68
2022/03/09 04:19:19;;;;;;;16.20;8.38;;;;;;;;;;5049634;28;20497;-70
2022/03/09 04:22:05;;;;;;;13.93;8.00;;;;;;;;;;5052780;28;20035;-70
2022/03/09 04:24:51;;;;;;;13.85;8.70;;;;;;;;;;5055389;28;20032;-63
2022/03/09 04:27:37;;;;;;;17.30;7.93;;;;;;;;;;5064297;28;20062;-64
2022/03/09 04:30:22;;;;;;;14.32;8.98;;;;;;;;;;5053397;28;20020;-66
2022/03/09 04:33:07;;;;;;;16.63;9.18;;;;;;;;;;5053107;28;20048;-63
2022/03/09 04:35:52;;;;;;;15.10;8.50;;;;;;;;;;5053565;28;20040;-64
2022/03/09 04:38:38;;;;;;;14.27;7.53;;;;;;;;;;5051429;28;20074;-64
2022/03/09 04:41:23;;;;;;;13.73;8.10;;;;;;;;;;5047232;28;20717;-68
2022/03/09 04:44:08;;;;;;;15.02;7.60;;;;;;;;;;5053303;28;20033;-65
2022/03/09 04:46:53;;;;;;;14.88;7.80;;;;;;;;;;5053931;28;20024;-65
2022/03/09 04:49:39;;;;;;;15.05;8.02;;;;;;;;;;5050804;28;20041;-65
2022/03/09 04:52:24;;;;;;;15.43;8.15;;;;;;;;;;5067497;28;20031;-66
2022/03/09 04:55:09;;;;;;;17.20;7.82;;;;;;;;;;5053294;28;20047;-67
2022/03/09 04:57:54;;;;;;;17.73;8.45;;;;;;;;;;5056792;28;20215;-67
2022/03/09 05:00:39;;;;;;;14.82;8.43;;;;;;;;;;5056817;28;20103;-67
2022/03/09 05:03:25;;;;;;;16.85;7.72;;;;;;;;;;5044903;28;20052;-65
2022/03/09 05:06:10;;;;;;;15.75;8.52;;;;;;;;;;5051440;28;20036;-65
2022/03/09 05:08:55;;;;;;;14.27;7.75;;;;;;;;;;5067295;28;20077;-65
2022/03/09 05:11:41;;;;;;;16.38;7.40;;;;;;;;;;5051796;28;20578;-65
2022/03/09 05:14:26;;;;;;;14.35;8.13;;;;;;;;;;5054401;28;20055;-64
2022/03/09 05:17:11;;;;;;;15.65;7.72;;;;;;;;;;5053898;28;20028;-64
2022/03/09 05:19:57;;;;;;;14.43;7.45;;;;;;;;;;5048794;28;20071;-66
2022/03/09 05:22:42;;;;;;;14.23;8.13;;;;;;;;;;5060116;28;20067;-65
2022/03/09 05:25:28;;;;;;;19.38;8.82;;;;;;;;;;5052512;28;20387;-66
2022/03/09 05:28:13;;;;;;;14.93;7.35;;;;;;;;;;5054667;28;20418;-66
2022/03/09 05:30:58;;;;;;;15.20;7.55;;;;;;;;;;5071827;28;20028;-68
2022/03/09 05:33:44;;;;;;;15.40;7.90;;;;;;;;;;5052709;28;20440;-66
2022/03/09 05:36:29;;;;;;;15.02;8.23;;;;;;;;;;5063126;28;20037;-66
2022/03/09 05:39:14;;;;;;;15.52;8.57;;;;;;;;;;5070709;28;20104;-70
2022/03/09 05:41:59;;;;;;;12.70;7.13;;;;;;;;;;5050216;28;20036;-69
2022/03/09 05:44:45;;;;;;;17.13;8.55;;;;;;;;;;5061136;28;20040;-69
2022/03/09 05:47:31;;;;;;;16.42;8.75;;;;;;;;;;5047666;28;20024;-68
2022/03/09 05:50:17;;;;;;;17.02;8.40;;;;;;;;;;5066783;28;20494;-68
2022/03/09 05:53:03;;;;;;;15.95;8.07;;;;;;;;;;5057304;28;20056;-70
2022/03/09 05:55:48;;;;;;;14.75;7.78;;;;;;;;;;5038059;28;20511;-66
2022/03/09 05:58:33;;;;;;;14.93;7.68;;;;;;;;;;5065259;28;20028;-62
2022/03/09 06:01:20;;;;;;;15.93;7.97;;;;;;;;;;5054035;28;20031;-64
2022/03/09 06:04:06;;;;;;;17.02;8.80;;;;;;;;;;5065964;28;20379;-64
2022/03/09 06:06:51;;;;;;;14.68;7.95;;;;;;;;;;5051677;28;20047;-65
2022/03/09 06:09:36;;;;;;;14.32;7.00;;;;;;;;;;5052930;28;20031;-64
2022/03/09 06:12:22;;;;;;;13.20;7.65;;;;;;;;;;5057963;28;20073;-68
2022/03/09 06:15:07;;;;;;;14.98;8.35;;;;;;;;;;5046172;28;20059;-66
2022/03/09 06:17:53;;;;;;;15.07;8.25;;;;;;;;;;5053040;28;20036;-64
2022/03/09 06:20:38;;;;;;;17.75;8.75;;;;;;;;;;5053941;28;20523;-65
2022/03/09 06:23:23;;;;;;;14.13;8.07;;;;;;;;;;5056109;28;20559;-66
2022/03/09 06:26:08;;;;;;;13.80;7.95;;;;;;;;;;5052164;28;20048;-68
2022/03/09 06:28:54;;;;;;;15.38;7.95;;;;;;;;;;5050336;28;20043;-66
2022/03/09 06:31:43;;;;;;;14.85;8.65;;;;;;;;;;5052487;28;20025;-68
2022/03/09 06:34:28;;;;;;;16.00;9.37;;;;;;;;;;5058763;28;20084;-68
2022/03/09 06:37:13;;;;;;;17.77;8.95;;;;;;;;;;5053019;28;20059;-69
2022/03/09 06:39:59;;;;;;;16.90;8.73;;;;;;;;;;5064006;28;20028;-67
2022/03/09 06:42:44;;;;;;;16.88;9.15;;;;;;;;;;5048232;28;20197;-69
2022/03/09 06:45:29;;;;;;;14.85;8.27;;;;;;;;;;5052530;28;20036;-71
2022/03/09 06:48:14;;;;;;;20.70;8.52;;;;;;;;;;5047102;28;20028;-69
2022/03/09 06:51:00;;;;;;;17.52;8.85;;;;;;;;;;5059379;28;20185;-68
2022/03/09 06:53:46;;;;;;;16.38;8.57;;;;;;;;;;5050507;28;20017;-67
2022/03/09 06:56:31;;;;;;;21.00;10.02;;;;;;;;;;5048257;28;20479;-64
2022/03/09 06:59:17;;;;;;;17.52;9.23;;;;;;;;;;5041459;28;20043;-64
2022/03/09 07:02:02;;;;;;;18.52;10.00;;;;;;;;;;5043058;28;20033;-63
2022/03/09 07:04:47;;;;;;;16.58;8.60;;;;;;;;;;5069717;28;20387;-65
2022/03/09 07:07:33;;;;;;;21.33;9.93;;;;;;;;;;5064702;28;20024;-65
2022/03/09 07:10:18;;;;;;;25.95;10.30;;;;;;;;;;5053008;28;20067;-68
2022/03/09 07:13:03;;;;;;;22.63;9.02;;;;;;;;;;5055125;28;20021;-64
2022/03/09 07:15:48;;;;;;;17.25;10.55;;;;;;;;;;5051638;28;20047;-64
2022/03/09 07:18:33;;;;;;;20.80;11.82;;;;;;;;;;5047006;28;20032;-64
2022/03/09 07:21:19;;;;;;;19.83;9.68;;;;;;;;;;5054541;28;20074;-66
2022/03/09 07:24:04;;;;;;;22.60;12.18;;;;;;;;;;5049554;28;20515;-65
2022/03/09 07:26:49;;;;;;;22.55;11.10;;;;;;;;;;5057102;28;20042;-64
2022/03/09 07:29:35;;;;;;;25.30;11.48;;;;;;;;;;5052497;28;20112;-62
2022/03/09 07:32:20;;;;;;;19.23;10.50;;;;;;;;;;5054307;28;20368;-63
2022/03/09 07:35:06;;;;;;;20.67;10.13;;;;;;;;;;5050762;28;20055;-64
2022/03/09 07:37:51;;;;;;;22.58;10.88;;;;;;;;;;5051358;28;20295;-64
2022/03/09 07:40:36;;;;;;;29.63;11.50;;;;;;;;;;5051821;28;20033;-66
2022/03/09 07:43:22;;;;;;;19.70;10.65;;;;;;;;;;5050946;28;20113;-64
2022/03/09 07:46:09;;;;;;;19.52;10.32;;;;;;;;;;5053196;28;20121;-69
2022/03/09 07:48:54;;;;;;;20.33;10.15;;;;;;;;;;5054883;28;20029;-66
2022/03/09 07:51:39;;;;;;;17.35;10.13;;;;;;;;;;5050970;28;20487;-66
2022/03/09 07:54:24;;;;;;;19.08;10.07;;;;;;;;;;5053007;28;20052;-67
2022/03/09 07:57:10;;;;;;;22.85;9.80;;;;;;;;;;5050424;28;20032;-67
2022/03/09 07:59:55;;;;;;;19.83;10.77;;;;;;;;;;5052000;28;20105;-66
2022/03/09 08:02:40;;;;;;;19.52;10.70;;;;;;;;;;5065265;28;20032;-72
2022/03/09 08:05:26;;;;;;;19.75;9.95;;;;;;;;;;5027639;28;20468;-64
2022/03/09 08:08:11;;;;;;;16.92;9.95;;;;;;;;;;5049168;28;20032;-68
2022/03/09 08:10:56;;;;;;;20.80;9.85;;;;;;;;;;5063543;28;20458;-67
2022/03/09 08:13:42;;;;;;;21.05;10.20;;;;;;;;;;5053587;28;20075;-64
2022/03/09 08:16:27;;;;;;;21.02;11.00;;;;;;;;;;5051830;28;20086;-63
2022/03/09 08:19:12;;;;;;;17.08;11.35;;;;;;;;;;5053707;28;20028;-65
2022/03/09 08:21:57;;;;;;;17.98;9.90;;;;;;;;;;5052641;28;20064;-63
2022/03/09 08:24:43;;;;;;;17.83;10.73;;;;;;;;;;5054055;28;20178;-69
2022/03/09 08:27:28;;;;;;;25.25;11.15;;;;;;;;;;5052446;28;20025;-69
2022/03/09 08:30:13;;;;;;;19.52;11.40;;;;;;;;;;5053287;28;20036;-71
2022/03/09 08:32:58;;;;;;;24.08;11.38;;;;;;;;;;5050723;28;20043;-69
2022/03/09 08:35:44;;;;;;;16.67;10.55;;;;;;;;;;5047491;28;20049;-69
2022/03/09 08:38:29;;;;;;;16.83;9.98;;;;;;;;;;5050003;28;20065;-71
2022/03/09 08:41:14;;;;;;;22.77;11.45;;;;;;;;;;5052503;28;20734;-73
2022/03/09 08:43:59;;;;;;;16.13;9.25;;;;;;;;;;5057501;28;20036;-67
2022/03/09 08:46:45;;;;;;;19.42;10.35;;;;;;;;;;5049943;28;20049;-71
2022/03/09 08:49:31;;;;;;;18.38;10.27;;;;;;;;;;5053415;28;20109;-72
2022/03/09 08:52:16;;;;;;;16.08;9.35;;;;;;;;;;5053552;28;20162;-67
2022/03/09 08:55:01;;;;;;;17.67;9.48;;;;;;;;;;5052570;28;20021;-70
2022/03/09 08:57:46;;;;;;;16.75;9.38;;;;;;;;;;5051300;28;20029;-68
2022/03/09 09:00:32;;;;;;;19.40;9.85;;;;;;;;;;5064808;28;20357;-71
2022/03/09 09:03:17;;;;;;;17.02;9.13;;;;;;;;;;5051865;28;20379;-70
2022/03/09 09:06:02;;;;;;;16.63;9.45;;;;;;;;;;5041131;28;20093;-71
2022/03/09 09:08:47;;;;;;;18.05;9.65;;;;;;;;;;5052494;28;20032;-71
2022/03/09 09:11:33;;;;;;;19.10;10.48;;;;;;;;;;5050984;28;20498;-71
2022/03/09 09:14:18;;;;;;;16.70;9.05;;;;;;;;;;5055616;28;20062;-73
2022/03/09 09:17:03;;;;;;;19.02;10.15;;;;;;;;;;5055050;28;20032;-71
2022/03/09 09:19:49;;;;;;;21.33;9.77;;;;;;;;;;5051328;28;20046;-77
2022/03/09 09:22:34;;;;;;;18.52;10.55;;;;;;;;;;5051644;28;20119;-76
2022/03/09 09:25:19;;;;;;;15.88;10.18;;;;;;;;;;5040746;28;20375;-73
2022/03/09 09:28:05;;;;;;;23.70;10.65;;;;;;;;;;5058321;28;20082;-70
2022/03/09 09:30:50;;;;;;;21.15;10.75;;;;;;;;;;5051976;28;20090;-72
2022/03/09 09:33:35;;;;;;;17.55;11.30;;;;;;;;;;5051272;28;20094;-73
2022/03/09 09:36:21;;;;;;;15.10;10.27;;;;;;;;;;5051619;28;20116;-71
2022/03/09 09:39:06;;;;;;;18.55;9.88;;;;;;;;;;5052457;28;20355;-63
2022/03/09 09:41:52;;;;;;;14.70;9.60;;;;;;;;;;5051137;28;20461;-66
2022/03/09 09:44:41;;;;;;;14.85;10.18;;;;;;;;;;5051474;28;20028;-65
2022/03/09 09:47:31;;;;;;;16.98;8.90;;;;;;;;;;5052677;28;20020;-65
2022/03/09 09:50:17;;;;;;;15.07;10.10;;;;;;;;;;5048780;28;20119;-67
2022/03/09 09:53:03;;;;;;;15.30;9.05;;;;;;;;;;5048424;28;20416;-72
2022/03/09 09:55:49;;;;;;;16.30;10.63;;;;;;;;;;5048210;28;20565;-73
2022/03/09 09:58:34;;;;;;;12.88;9.85;;;;;;;;;;5051764;28;20028;-72
2022/03/09 10:01:20;;;;;;;14.32;9.63;;;;;;;;;;5050991;28;20403;-71
2022/03/09 10:04:06;;;;;;;15.38;10.10;;;;;;;;;;5051275;28;20025;-73
2022/03/09 10:06:51;;;;;;;16.05;10.85;;;;;;;;;;5061564;28;21197;-73
2022/03/09 10:09:37;;;;;;;15.57;10.85;;;;;;;;;;5052387;28;20033;-73
2022/03/09 10:12:29;;;;;;;16.50;11.13;;;;;;;;;;5050588;28;20028;-69
2022/03/09 10:15:17;;;;;;;14.60;11.30;;;;;;;;;;5064567;28;20047;-68
2022/03/09 10:18:29;;;;;;;13.82;11.48;;;;;;;;;;5053971;28;20032;-68
2022/03/09 10:21:17;;;;;;;14.50;11.77;;;;;;;;;;5061097;28;20035;-67
2022/03/09 10:24:03;;;;;;;14.52;12.40;;;;;;;;;;5041902;28;21255;-69
2022/03/09 10:26:49;;;;;;;15.73;11.65;;;;;;;;;;5059741;28;20488;-68
2022/03/09 10:29:34;;;;;;;15.85;12.13;;;;;;;;;;5051551;28;20413;-65
2022/03/09 10:32:19;;;;;;;17.13;11.48;;;;;;;;;;5046113;28;20071;-66
2022/03/09 10:35:05;;;;;;;14.68;11.93;;;;;;;;;;5060862;28;20108;-69
2022/03/09 10:37:50;;;;;;;14.15;12.57;;;;;;;;;;5045819;28;20097;-71
2022/03/09 10:40:40;;;;;;;13.68;11.65;;;;;;;;;;5049812;28;20035;-69
2022/03/09 10:43:28;;;;;;;19.38;13.32;;;;;;;;;;5035867;28;20103;-71
2022/03/09 10:46:13;;;;;;;18.17;12.50;;;;;;;;;;5038040;28;20028;-70
2022/03/09 10:49:02;;;;;;;19.42;13.55;;;;;;;;;;5050031;28;20043;-69
2022/03/09 10:51:49;;;;;;;17.83;12.40;;;;;;;;;;5061763;28;20515;-70
2022/03/09 10:54:35;;;;;;;21.73;13.50;;;;;;;;;;5062232;28;20089;-70
2022/03/09 10:57:29;;;;;;;19.58;12.48;;;;;;;;;;5049829;28;20085;-69
2022/03/09 11:00:14;;;;;;;19.77;14.00;;;;;;;;;;5041542;28;20103;-70
2022/03/09 11:03:04;;;;;;;21.30;12.35;;;;;;;;;;5054796;28;20032;-68
2022/03/09 11:05:50;;;;;;;;;;;;;;;;;;5057199;28;20033;-71
2022/03/09 11:08:36;;;;;;;18.73;12.48;;;;;;;;;;5049601;28;19912;-65
2022/03/09 11:11:23;;;;;;;17.52;12.45;;;;;;;;;;5051848;28;20040;-68
2022/03/09 11:14:08;;;;;;;20.08;12.18;;;;;;;;;;5035630;28;20483;-69
2022/03/09 11:16:57;;;;;;;18.85;12.70;;;;;;;;;;5034199;28;20096;-68
2022/03/09 11:19:43;;;;;;;16.35;12.50;;;;;;;;;;5050032;28;20071;-67
2022/03/09 11:22:29;;;;;;;18.95;13.77;;;;;;;;;;5055248;28;20112;-69
2022/03/09 11:25:15;;;;;;;23.08;13.27;;;;;;;;;;5055649;28;20028;-76
2022/03/09 11:28:01;;;;;;;22.13;12.65;;;;;;;;;;5064941;28;20036;-62
2022/03/09 11:30:53;;;;;;;23.17;13.95;;;;;;;;;;5049700;28;20041;-63
2022/03/09 11:33:40;;;;;;;20.40;14.00;;;;;;;;;;5035085;28;20024;-67
2022/03/09 11:36:29;;;;;;;21.58;13.93;;;;;;;;;;5038525;28;20494;-66
2022/03/09 11:39:15;;;;;;;18.55;13.35;;;;;;;;;;5047722;28;20170;-66
2022/03/09 11:42:19;;;;;;;22.90;15.70;;;;;;;;;;5054003;28;20111;-65
2022/03/09 11:45:13;;;;;;;21.95;14.95;;;;;;;;;;5040029;28;20036;-63
2022/03/09 11:48:07;;;;;;;20.23;14.20;;;;;;;;;;5046343;28;20450;-61
2022/03/09 11:50:52;;;;;;;25.10;16.70;;;;;;;;;;5061670;28;20275;-63
2022/03/09 11:53:39;;;;;;;20.58;15.82;;;;;;;;;;5055402;28;20036;-61
2022/03/09 11:56:28;;;;;;;20.20;13.25;;;;;;;;;;5058448;28;20319;-61
2022/03/09 11:59:15;;;;;;;20.50;15.25;;;;;;;;;;5052888;28;20107;-64
2022/03/09 12:02:00;;;;;;;19.23;13.55;;;;;;;;;;5043496;28;20363;-66
2022/03/09 12:04:49;;;;;;;24.25;15.07;;;;;;;;;;5047430;28;20542;-69
2022/03/09 12:07:35;;;;;;;21.67;14.05;;;;;;;;;;5053908;28;20071;-70
2022/03/09 12:10:22;;;;;;;20.55;14.13;;;;;;;;;;5055624;28;20033;-69
2022/03/09 12:13:15;;;;;;;23.13;15.05;;;;;;;;;;5064637;28;20078;-73
2022/03/09 12:16:00;;;;;;;20.35;13.48;;;;;;;;;;5047083;28;20040;-72
2022/03/09 12:18:50;;;;;;;20.88;14.40;;;;;;;;;;5054397;28;20125;-72
2022/03/09 12:21:37;;;;;;;21.40;14.40;;;;;;;;;;5056078;28;20107;-70
2022/03/09 12:24:23;;;;;;;20.13;13.32;;;;;;;;;;5047331;28;20135;-70
2022/03/09 12:27:21;;;;;;;20.05;14.20;;;;;;;;;;5058453;28;20088;-71
2022/03/09 12:30:26;;;;;;;21.77;14.50;;;;;;;;;;5049465;28;20095;-73
2022/03/09 12:33:11;;;;;;;19.23;13.77;;;;;;;;;;5050585;28;20070;-73
2022/03/09 12:36:10;;;;;;;17.60;11.68;;;;;;;;;;5067499;28;20483;-70
2022/03/09 12:39:01;;;;;;;19.52;12.85;;;;;;;;;;5052675;28;20329;-76
2022/03/09 12:41:53;;;;;;;17.70;11.77;;;;;;;;;;5052392;28;20067;-72
2022/03/09 12:44:38;;;;;;;16.15;12.02;;;;;;;;;;5059819;28;20116;-73
2022/03/09 12:47:24;;;;;;;16.52;11.80;;;;;;;;;;5065740;28;20051;-71
2022/03/09 12:50:10;;;;;;;16.65;12.32;;;;;;;;;;5038581;28;20140;-72
2022/03/09 12:52:55;;;;;;;17.70;11.95;;;;;;;;;;5052310;28;20086;-71
2022/03/09 12:55:41;;;;;;;19.13;11.35;;;;;;;;;;5052189;28;20064;-69
2022/03/09 12:58:26;;;;;;;16.70;12.80;;;;;;;;;;5054775;28;20239;-75
2022/03/09 13:01:13;;;;;;;17.83;12.18;;;;;;;;;;5050917;28;20031;-63
2022/03/09 13:04:00;;;;;;;16.95;12.80;;;;;;;;;;5052896;28;20105;-62
2022/03/09 13:06:45;;;;;;;16.67;11.50;;;;;;;;;;5052327;28;20066;-62
2022/03/09 13:09:30;;;;;;;16.27;11.70;;;;;;;;;;5051874;28;20025;-63
2022/03/09 13:12:15;;;;;;;17.98;12.10;;;;;;;;;;5053140;28;20021;-63
2022/03/09 13:15:01;;;;;;;18.55;12.63;;;;;;;;;;5046941;28;20024;-70
2022/03/09 13:17:47;;;;;;;18.23;11.70;;;;;;;;;;5051491;28;20032;-73
2022/03/09 13:20:33;;;;;;;26.50;13.07;;;;;;;;;;5040667;28;20028;-74
2022/03/09 13:23:33;;;;;;;19.05;12.95;;;;;;;;;;5051538;28;20032;-74
2022/03/09 13:26:22;;;;;;;18.27;11.70;;;;;;;;;;5052985;28;20503;-76
2022/03/09 13:29:16;;;;;;;17.35;11.63;;;;;;;;;;5038456;28;20135;-73
2022/03/09 13:32:03;;;;;;;17.88;13.20;;;;;;;;;;5061051;28;20244;-74
2022/03/09 13:34:54;;;;;;;21.63;13.50;;;;;;;;;;5051374;28;20037;-70
2022/03/09 13:37:40;;;;;;;19.30;12.77;;;;;;;;;;5038347;28;20028;-63
2022/03/09 13:40:25;;;;;;;17.80;12.45;;;;;;;;;;5050346;28;20028;-63
2022/03/09 13:43:10;;;;;;;19.80;13.55;;;;;;;;;;5047938;28;20115;-65
2022/03/09 13:45:56;;;;;;;19.85;13.18;;;;;;;;;;5057082;28;20708;-67
2022/03/09 13:48:41;;;;;;;20.67;11.85;;;;;;;;;;5059044;28;20020;-66
2022/03/09 13:51:31;;;;;;;17.42;11.15;;;;;;;;;;5049612;28;20070;-66
2022/03/09 13:54:20;;;;;;;20.90;12.98;;;;;;;;;;5049188;28;20467;-66
2022/03/09 13:57:06;;;;;;;17.77;10.88;;;;;;;;;;5046059;28;20036;-76
2022/03/09 13:59:51;;;;;;;18.92;12.95;;;;;;;;;;5050298;28;20058;-76
2022/03/09 14:02:36;;;;;;;18.63;12.10;;;;;;;;;;5055457;28;20073;-76
2022/03/09 14:05:32;;;;;;;20.52;13.23;;;;;;;;;;5038957;28;20032;-76
2022/03/09 14:08:30;;;;;;;18.92;13.18;;;;;;;;;;5048542;28;20037;-76
2022/03/09 14:11:17;;;;;;;19.52;13.50;;;;;;;;;;5039718;28;20536;-68
2022/03/09 14:14:06;;;;;;;19.10;12.98;;;;;;;;;;5051598;28;20029;-71
2022/03/09 14:16:53;;;;;;;21.08;12.57;;;;;;;;;;5050637;28;20029;-78
2022/03/09 14:19:38;;;;;;;18.52;12.68;;;;;;;;;;5052626;28;20124;-79
2022/03/09 14:22:24;;;;;;;19.17;13.15;;;;;;;;;;5051552;28;20248;-79
2022/03/09 14:25:09;;;;;;;19.48;12.88;;;;;;;;;;5053809;28;20102;-76
2022/03/09 14:27:58;;;;;;;20.40;12.68;;;;;;;;;;5042960;28;20032;-74
2022/03/09 14:30:43;;;;;;;22.00;13.30;;;;;;;;;;5035346;28;20040;-66
2022/03/09 14:33:28;;;;;;;22.85;14.20;;;;;;;;;;5051146;28;20483;-74
2022/03/09 14:36:14;;;;;;;19.77;13.13;;;;;;;;;;5070452;28;20040;-72
2022/03/09 14:39:00;;;;;;;20.10;13.60;;;;;;;;;;5051516;28;20033;-72
2022/03/09 14:41:46;;;;;;;20.60;12.75;;;;;;;;;;5050058;28;20467;-73
2022/03/09 14:44:31;;;;;;;21.63;14.05;;;;;;;;;;5050576;28;20061;-73
2022/03/09 14:47:17;;;;;;;20.33;13.70;;;;;;;;;;5050033;28;20107;-72
2022/03/09 14:50:02;;;;;;;21.20;13.90;;;;;;;;;;5051176;28;20036;-74
2022/03/09 14:52:48;;;;;;;21.83;13.52;;;;;;;;;;5049926;28;20483;-71
2022/03/09 14:55:33;;;;;;;22.17;14.52;;;;;;;;;;5050949;28;20024;-70
2022/03/09 14:58:18;;;;;;;19.05;13.50;;;;;;;;;;5049124;28;20376;-69
2022/03/09 15:01:05;;;;;;;22.10;13.30;;;;;;;;;;5050338;28;20291;-76
2022/03/09 15:03:50;;;;;;;20.02;13.25;;;;;;;;;;5036005;28;20034;-74
2022/03/09 15:06:35;;;;;;;18.45;12.25;;;;;;;;;;5054245;28;20029;-69
2022/03/09 15:09:21;;;;;;;22.80;13.98;;;;;;;;;;5054240;28;20239;-72
2022/03/09 15:12:06;;;;;;;20.92;13.50;;;;;;;;;;5049761;28;20040;-73
2022/03/09 15:14:51;;;;;;;19.17;13.77;;;;;;;;;;5044296;28;20055;-72
2022/03/09 15:17:37;;;;;;;20.63;13.73;;;;;;;;;;5047887;28;20132;-72
2022/03/09 15:20:22;;;;;;;21.05;13.35;;;;;;;;;;5054766;28;20250;-76
2022/03/09 15:23:08;;;;;;;20.55;13.75;;;;;;;;;;5053697;28;20056;-72
2022/03/09 15:25:53;;;;;;;20.63;13.38;;;;;;;;;;5053358;28;20036;-75
2022/03/09 15:28:39;;;;;;;18.67;13.30;;;;;;;;;;5052572;28;20111;-75
2022/03/09 15:31:25;;;;;;;21.67;13.63;;;;;;;;;;5039385;28;20040;-71
2022/03/09 15:34:10;;;;;;;22.70;13.73;;;;;;;;;;5052510;28;20020;-71
2022/03/09 15:36:56;;;;;;;19.48;13.38;;;;;;;;;;5054591;28;20501;-71
2022/03/09 15:39:41;;;;;;;22.80;14.20;;;;;;;;;;5060298;28;20272;-73
2022/03/09 15:42:26;;;;;;;22.38;14.95;;;;;;;;;;5051520;28;20482;-68
2022/03/09 15:45:12;;;;;;;19.58;11.88;;;;;;;;;;5049913;28;20123;-72
2022/03/09 15:47:57;;;;;;;18.48;12.07;;;;;;;;;;5061356;28;20040;-76
2022/03/09 15:50:47;;;;;;;18.58;10.90;;;;;;;;;;5050539;28;20050;-63
2022/03/09 15:53:32;;;;;;;17.75;12.18;;;;;;;;;;5037703;28;20032;-68
2022/03/09 15:56:17;;;;;;;19.60;11.77;;;;;;;;;;5040520;28;20036;-68
2022/03/09 15:59:03;;;;;;;17.50;12.43;;;;;;;;;;5051093;28;20382;-66
2022/03/09 16:01:48;;;;;;;25.50;12.02;;;;;;;;;;5049777;28;20032;-65
2022/03/09 16:04:33;;;;;;;19.88;12.70;;;;;;;;;;5049213;28;20036;-66
2022/03/09 16:07:18;;;;;;;21.25;13.65;;;;;;;;;;5053220;28;20048;-67
2022/03/09 16:10:04;;;;;;;19.60;13.43;;;;;;;;;;5051380;28;20043;-65
2022/03/09 16:12:49;;;;;;;24.10;14.75;;;;;;;;;;5058961;28;20041;-63